sensor_id;sensor_type;location;lat;lon;timestamp;pressure;altitude;pressure_sealevel;temperature;humidity
65013;BME280;51715;39.432;-77.518;2023-03-22T00:01:27;100640.72;;;14.70;15.35
65013;BME280;51715;39.432;-77.518;2023-03-22T00:03:56;100643.30;;;14.45;15.54
65013;BME280;51715;39.432;-77.518;2023-03-22T00:06:25;100637.11;;;14.41;15.33
65013;BME280;51715;39.432;-77.518;2023-03-22T00:08:55;100639.23;;;14.25;15.05
65013;BME280;51715;39.432;-77.518;2023-03-22T00:11:23;100640.34;;;14.30;14.73
65013;BME280;51715;39.432;-77.518;2023-03-22T00:13:51;100639.12;;;13.89;14.51
65013;BME280;51715;39.432;-77.518;2023-03-22T00:16:20;100632.36;;;14.03;14.71
65013;BME280;51715;39.432;-77.518;2023-03-22T00:18:48;100624.62;;;14.15;14.60
65013;BME280;51715;39.432;-77.518;2023-03-22T00:21:17;100622.03;;;14.05;14.61
65013;BME280;51715;39.432;-77.518;2023-03-22T00:23:45;100618.17;;;14.26;14.07
65013;BME280;51715;39.432;-77.518;2023-03-22T00:26:15;100614.82;;;14.24;14.07
65013;BME280;51715;39.432;-77.518;2023-03-22T00:28:43;100613.43;;;14.13;14.28
65013;BME280;51715;39.432;-77.518;2023-03-22T00:31:11;100609.14;;;14.13;14.24
65013;BME280;51715;39.432;-77.518;2023-03-22T00:33:40;100606.99;;;14.20;13.94
65013;BME280;51715;39.432;-77.518;2023-03-22T00:36:10;100608.07;;;14.11;13.75
65013;BME280;51715;39.432;-77.518;2023-03-22T00:38:38;100609.79;;;14.02;13.81
65013;BME280;51715;39.432;-77.518;2023-03-22T00:41:09;100613.81;;;14.14;13.39
65013;BME280;51715;39.432;-77.518;2023-03-22T00:43:38;100613.46;;;14.02;13.15
65013;BME280;51715;39.432;-77.518;2023-03-22T00:46:08;100612.66;;;14.07;13.27
65013;BME280;51715;39.432;-77.518;2023-03-22T00:48:37;100613.96;;;14.26;13.70
65013;BME280;51715;39.432;-77.518;2023-03-22T00:51:06;100612.43;;;13.77;14.83
65013;BME280;51715;39.432;-77.518;2023-03-22T00:53:35;100620.69;;;13.86;13.93
65013;BME280;51715;39.432;-77.518;2023-03-22T00:56:06;100623.14;;;13.77;14.17
65013;BME280;51715;39.432;-77.518;2023-03-22T00:58:35;100626.21;;;13.71;14.16
65013;BME280;51715;39.432;-77.518;2023-03-22T01:01:04;100625.97;;;13.81;14.24
65013;BME280;51715;39.432;-77.518;2023-03-22T01:03:33;100627.13;;;13.97;14.34
65013;BME280;51715;39.432;-77.518;2023-03-22T01:06:01;100629.10;;;14.00;13.94
65013;BME280;51715;39.432;-77.518;2023-03-22T01:08:30;100632.33;;;13.98;14.41
65013;BME280;51715;39.432;-77.518;2023-03-22T01:11:00;100638.12;;;13.71;13.96
65013;BME280;51715;39.432;-77.518;2023-03-22T01:13:28;100643.35;;;13.95;14.09
65013;BME280;51715;39.432;-77.518;2023-03-22T01:15:57;100647.09;;;13.90;13.70
65013;BME280;51715;39.432;-77.518;2023-03-22T01:18:26;100650.09;;;14.13;13.33
65013;BME280;51715;39.432;-77.518;2023-03-22T01:20:53;100650.22;;;14.19;13.70
65013;BME280;51715;39.432;-77.518;2023-03-22T01:23:21;100653.79;;;14.27;13.87
65013;BME280;51715;39.432;-77.518;2023-03-22T01:25:50;100649.75;;;14.40;13.34
65013;BME280;51715;39.432;-77.518;2023-03-22T01:28:18;100651.94;;;14.41;13.01
65013;BME280;51715;39.432;-77.518;2023-03-22T01:30:47;100657.00;;;14.25;13.42
65013;BME280;51715;39.432;-77.518;2023-03-22T01:33:16;100664.54;;;14.29;13.15
65013;BME280;51715;39.432;-77.518;2023-03-22T01:35:44;100659.02;;;14.37;13.48
65013;BME280;51715;39.432;-77.518;2023-03-22T01:38:12;100656.27;;;14.56;13.89
65013;BME280;51715;39.432;-77.518;2023-03-22T01:40:40;100653.26;;;14.58;13.39
65013;BME280;51715;39.432;-77.518;2023-03-22T01:43:13;100655.47;;;14.14;13.82
65013;BME280;51715;39.432;-77.518;2023-03-22T01:45:44;100656.38;;;14.11;13.38
65013;BME280;51715;39.432;-77.518;2023-03-22T01:48:19;100659.03;;;14.22;13.63
65013;BME280;51715;39.432;-77.518;2023-03-22T01:50:53;100656.15;;;13.98;14.15
65013;BME280;51715;39.432;-77.518;2023-03-22T01:53:26;100654.08;;;13.67;15.10
65013;BME280;51715;39.432;-77.518;2023-03-22T01:55:56;100657.62;;;13.73;13.73
65013;BME280;51715;39.432;-77.518;2023-03-22T01:58:25;100655.90;;;13.66;14.56
65013;BME280;51715;39.432;-77.518;2023-03-22T02:00:55;100652.39;;;13.34;14.42
65013;BME280;51715;39.432;-77.518;2023-03-22T02:03:29;100649.79;;;13.61;14.24
65013;BME280;51715;39.432;-77.518;2023-03-22T02:06:00;100649.24;;;13.95;15.01
65013;BME280;51715;39.432;-77.518;2023-03-22T02:08:29;100647.04;;;13.77;14.70
65013;BME280;51715;39.432;-77.518;2023-03-22T02:11:00;100647.63;;;13.72;14.15
65013;BME280;51715;39.432;-77.518;2023-03-22T02:13:43;100644.10;;;14.40;14.19
65013;BME280;51715;39.432;-77.518;2023-03-22T02:16:27;100643.46;;;14.12;14.36
65013;BME280;51715;39.432;-77.518;2023-03-22T02:19:08;100642.08;;;14.31;13.85
65013;BME280;51715;39.432;-77.518;2023-03-22T02:22:04;100640.67;;;14.49;13.99
65013;BME280;51715;39.432;-77.518;2023-03-22T02:25:06;100642.45;;;14.28;14.14
65013;BME280;51715;39.432;-77.518;2023-03-22T02:27:57;100643.78;;;14.13;14.60
65013;BME280;51715;39.432;-77.518;2023-03-22T02:30:47;100637.04;;;13.70;14.98
65013;BME280;51715;39.432;-77.518;2023-03-22T02:33:52;100640.73;;;13.87;14.80
65013;BME280;51715;39.432;-77.518;2023-03-22T02:36:34;100652.67;;;13.74;13.84
65013;BME280;51715;39.432;-77.518;2023-03-22T02:39:16;100655.46;;;13.80;14.40
65013;BME280;51715;39.432;-77.518;2023-03-22T02:42:02;100652.02;;;13.82;14.49
65013;BME280;51715;39.432;-77.518;2023-03-22T02:44:40;100653.84;;;13.92;13.87
65013;BME280;51715;39.432;-77.518;2023-03-22T02:47:17;100658.72;;;13.64;13.82
65013;BME280;51715;39.432;-77.518;2023-03-22T02:49:54;100662.68;;;13.76;14.46
65013;BME280;51715;39.432;-77.518;2023-03-22T02:52:26;100666.46;;;13.20;14.75
65013;BME280;51715;39.432;-77.518;2023-03-22T02:55:03;100666.98;;;13.51;14.47
65013;BME280;51715;39.432;-77.518;2023-03-22T02:57:36;100670.78;;;14.02;14.55
65013;BME280;51715;39.432;-77.518;2023-03-22T03:00:11;100674.68;;;14.02;14.90
65013;BME280;51715;39.432;-77.518;2023-03-22T03:02:43;100684.24;;;14.05;14.75
65013;BME280;51715;39.432;-77.518;2023-03-22T03:05:15;100683.15;;;12.89;15.83
65013;BME280;51715;39.432;-77.518;2023-03-22T03:07:48;100680.60;;;12.79;16.53
65013;BME280;51715;39.432;-77.518;2023-03-22T03:10:18;100678.44;;;13.06;16.18
65013;BME280;51715;39.432;-77.518;2023-03-22T03:12:48;100682.90;;;12.92;16.09
65013;BME280;51715;39.432;-77.518;2023-03-22T03:15:20;100680.95;;;13.09;15.61
65013;BME280;51715;39.432;-77.518;2023-03-22T03:17:59;100692.76;;;12.99;16.22
65013;BME280;51715;39.432;-77.518;2023-03-22T03:20:41;100688.58;;;12.69;16.10
65013;BME280;51715;39.432;-77.518;2023-03-22T03:23:22;100688.61;;;12.90;16.45
65013;BME280;51715;39.432;-77.518;2023-03-22T03:25:59;100688.99;;;12.96;16.91
65013;BME280;51715;39.432;-77.518;2023-03-22T03:28:37;100680.86;;;13.00;16.64
65013;BME280;51715;39.432;-77.518;2023-03-22T03:31:14;100685.51;;;12.97;17.39
65013;BME280;51715;39.432;-77.518;2023-03-22T03:33:52;100681.65;;;12.55;17.92
65013;BME280;51715;39.432;-77.518;2023-03-22T03:36:23;100678.60;;;13.02;17.43
65013;BME280;51715;39.432;-77.518;2023-03-22T03:38:54;100673.57;;;12.83;17.41
65013;BME280;51715;39.432;-77.518;2023-03-22T03:41:26;100679.39;;;12.60;16.62
65013;BME280;51715;39.432;-77.518;2023-03-22T03:43:55;100690.48;;;11.53;18.10
65013;BME280;51715;39.432;-77.518;2023-03-22T03:46:23;100690.58;;;11.94;17.77
65013;BME280;51715;39.432;-77.518;2023-03-22T03:48:52;100694.19;;;12.00;18.25
65013;BME280;51715;39.432;-77.518;2023-03-22T03:51:22;100699.13;;;12.24;18.30
65013;BME280;51715;39.432;-77.518;2023-03-22T03:53:49;100705.23;;;12.15;18.73
65013;BME280;51715;39.432;-77.518;2023-03-22T03:56:18;100704.00;;;12.55;18.18
65013;BME280;51715;39.432;-77.518;2023-03-22T03:58:46;100695.96;;;12.15;16.70
65013;BME280;51715;39.432;-77.518;2023-03-22T04:04:10;100690.46;;;12.52;16.68
65013;BME280;51715;39.432;-77.518;2023-03-22T04:06:38;100692.06;;;12.75;16.97
65013;BME280;51715;39.432;-77.518;2023-03-22T04:09:06;100689.50;;;12.93;17.43
65013;BME280;51715;39.432;-77.518;2023-03-22T04:11:34;100685.93;;;12.97;17.42
65013;BME280;51715;39.432;-77.518;2023-03-22T04:14:03;100685.56;;;13.26;17.08
65013;BME280;51715;39.432;-77.518;2023-03-22T04:16:31;100688.91;;;13.18;17.06
65013;BME280;51715;39.432;-77.518;2023-03-22T04:18:59;100698.65;;;12.89;17.46
65013;BME280;51715;39.432;-77.518;2023-03-22T04:21:27;100698.72;;;12.96;17.46
65013;BME280;51715;39.432;-77.518;2023-03-22T04:23:55;100695.88;;;13.01;17.25
65013;BME280;51715;39.432;-77.518;2023-03-22T04:26:24;100702.91;;;12.55;19.70
65013;BME280;51715;39.432;-77.518;2023-03-22T04:28:53;100702.30;;;12.45;18.31
65013;BME280;51715;39.432;-77.518;2023-03-22T04:31:21;100696.51;;;12.72;17.83
65013;BME280;51715;39.432;-77.518;2023-03-22T04:33:50;100696.36;;;12.67;18.52
65013;BME280;51715;39.432;-77.518;2023-03-22T04:36:18;100693.37;;;12.89;18.12
65013;BME280;51715;39.432;-77.518;2023-03-22T04:38:47;100698.27;;;12.82;18.53
65013;BME280;51715;39.432;-77.518;2023-03-22T04:41:16;100701.12;;;12.49;18.65
65013;BME280;51715;39.432;-77.518;2023-03-22T04:43:45;100698.32;;;12.44;19.15
65013;BME280;51715;39.432;-77.518;2023-03-22T04:46:13;100698.41;;;12.40;18.93
65013;BME280;51715;39.432;-77.518;2023-03-22T04:48:42;100696.03;;;12.32;19.25
65013;BME280;51715;39.432;-77.518;2023-03-22T04:51:10;100696.40;;;12.27;19.54
65013;BME280;51715;39.432;-77.518;2023-03-22T04:53:39;100694.28;;;12.55;19.30
65013;BME280;51715;39.432;-77.518;2023-03-22T04:56:10;100696.59;;;12.75;19.15
65013;BME280;51715;39.432;-77.518;2023-03-22T04:58:39;100697.61;;;12.59;19.61
65013;BME280;51715;39.432;-77.518;2023-03-22T05:01:10;100696.19;;;12.67;19.38
65013;BME280;51715;39.432;-77.518;2023-03-22T05:03:39;100690.73;;;12.96;19.72
65013;BME280;51715;39.432;-77.518;2023-03-22T05:06:09;100694.06;;;12.99;19.52
65013;BME280;51715;39.432;-77.518;2023-03-22T05:08:37;100694.46;;;12.59;19.17
65013;BME280;51715;39.432;-77.518;2023-03-22T05:11:06;100698.45;;;12.92;18.88
65013;BME280;51715;39.432;-77.518;2023-03-22T05:13:35;100699.47;;;12.79;18.84
65013;BME280;51715;39.432;-77.518;2023-03-22T05:16:04;100698.40;;;12.81;18.81
65013;BME280;51715;39.432;-77.518;2023-03-22T05:18:32;100697.48;;;12.86;18.99
65013;BME280;51715;39.432;-77.518;2023-03-22T05:21:01;100692.55;;;13.35;19.42
65013;BME280;51715;39.432;-77.518;2023-03-22T05:23:29;100689.69;;;12.80;20.33
65013;BME280;51715;39.432;-77.518;2023-03-22T05:25:58;100692.14;;;13.24;20.29
65013;BME280;51715;39.432;-77.518;2023-03-22T05:28:26;100689.78;;;13.17;19.73
65013;BME280;51715;39.432;-77.518;2023-03-22T05:30:54;100686.70;;;13.01;20.88
65013;BME280;51715;39.432;-77.518;2023-03-22T05:33:22;100682.97;;;12.37;21.74
65013;BME280;51715;39.432;-77.518;2023-03-22T05:35:51;100676.51;;;12.53;22.21
65013;BME280;51715;39.432;-77.518;2023-03-22T05:38:19;100669.04;;;12.15;22.90
65013;BME280;51715;39.432;-77.518;2023-03-22T05:40:48;100663.40;;;12.07;22.18
65013;BME280;51715;39.432;-77.518;2023-03-22T05:43:16;100655.66;;;11.93;22.98
65013;BME280;51715;39.432;-77.518;2023-03-22T05:45:45;100648.15;;;12.14;22.41
65013;BME280;51715;39.432;-77.518;2023-03-22T05:48:13;100645.46;;;11.89;22.38
65013;BME280;51715;39.432;-77.518;2023-03-22T05:50:42;100644.19;;;11.69;22.41
65013;BME280;51715;39.432;-77.518;2023-03-22T05:53:10;100641.68;;;11.55;22.70
65013;BME280;51715;39.432;-77.518;2023-03-22T05:55:39;100641.82;;;11.58;23.23
65013;BME280;51715;39.432;-77.518;2023-03-22T05:58:07;100643.77;;;12.13;22.87
65013;BME280;51715;39.432;-77.518;2023-03-22T06:00:36;100637.14;;;11.96;22.95
65013;BME280;51715;39.432;-77.518;2023-03-22T06:03:04;100637.83;;;12.09;23.36
65013;BME280;51715;39.432;-77.518;2023-03-22T06:05:32;100641.36;;;11.92;23.03
65013;BME280;51715;39.432;-77.518;2023-03-22T06:08:02;100638.16;;;11.86;23.43
65013;BME280;51715;39.432;-77.518;2023-03-22T06:10:31;100634.98;;;11.53;24.23
65013;BME280;51715;39.432;-77.518;2023-03-22T06:12:58;100634.44;;;11.71;23.73
65013;BME280;51715;39.432;-77.518;2023-03-22T06:15:27;100632.91;;;11.65;23.73
65013;BME280;51715;39.432;-77.518;2023-03-22T06:17:55;100633.80;;;11.75;23.97
65013;BME280;51715;39.432;-77.518;2023-03-22T06:20:23;100634.87;;;11.21;23.72
65013;BME280;51715;39.432;-77.518;2023-03-22T06:22:51;100633.39;;;11.76;22.95
65013;BME280;51715;39.432;-77.518;2023-03-22T06:25:19;100633.43;;;11.61;23.79
65013;BME280;51715;39.432;-77.518;2023-03-22T06:27:48;100636.24;;;11.67;23.94
65013;BME280;51715;39.432;-77.518;2023-03-22T06:30:17;100628.06;;;11.62;23.76
65013;BME280;51715;39.432;-77.518;2023-03-22T06:32:45;100623.83;;;11.87;23.08
65013;BME280;51715;39.432;-77.518;2023-03-22T06:35:14;100620.08;;;11.78;22.72
65013;BME280;51715;39.432;-77.518;2023-03-22T06:37:42;100617.79;;;11.82;23.14
65013;BME280;51715;39.432;-77.518;2023-03-22T06:40:11;100614.74;;;12.20;21.99
65013;BME280;51715;39.432;-77.518;2023-03-22T06:42:39;100615.97;;;12.13;22.17
65013;BME280;51715;39.432;-77.518;2023-03-22T06:45:08;100612.33;;;12.00;22.32
65013;BME280;51715;39.432;-77.518;2023-03-22T06:47:36;100610.42;;;12.22;22.98
65013;BME280;51715;39.432;-77.518;2023-03-22T06:50:05;100613.00;;;12.05;22.42
65013;BME280;51715;39.432;-77.518;2023-03-22T06:52:33;100612.15;;;12.11;22.78
65013;BME280;51715;39.432;-77.518;2023-03-22T06:55:01;100612.98;;;12.52;22.29
65013;BME280;51715;39.432;-77.518;2023-03-22T06:57:29;100615.02;;;12.09;22.21
65013;BME280;51715;39.432;-77.518;2023-03-22T06:59:57;100612.15;;;11.99;22.05
65013;BME280;51715;39.432;-77.518;2023-03-22T07:02:26;100613.43;;;12.08;21.68
65013;BME280;51715;39.432;-77.518;2023-03-22T07:04:54;100613.66;;;12.07;22.52
65013;BME280;51715;39.432;-77.518;2023-03-22T07:07:22;100612.46;;;12.28;22.72
65013;BME280;51715;39.432;-77.518;2023-03-22T07:09:50;100612.46;;;12.04;23.15
65013;BME280;51715;39.432;-77.518;2023-03-22T07:12:17;100612.00;;;12.16;23.69
65013;BME280;51715;39.432;-77.518;2023-03-22T07:14:47;100613.34;;;11.92;23.19
65013;BME280;51715;39.432;-77.518;2023-03-22T07:17:15;100606.29;;;11.83;22.93
65013;BME280;51715;39.432;-77.518;2023-03-22T07:19:43;100607.04;;;12.07;23.45
65013;BME280;51715;39.432;-77.518;2023-03-22T07:22:11;100606.17;;;12.01;23.12
65013;BME280;51715;39.432;-77.518;2023-03-22T07:24:39;100610.73;;;11.77;22.89
65013;BME280;51715;39.432;-77.518;2023-03-22T07:27:08;100605.49;;;11.81;23.18
65013;BME280;51715;39.432;-77.518;2023-03-22T07:29:36;100602.03;;;11.82;23.20
65013;BME280;51715;39.432;-77.518;2023-03-22T07:32:05;100603.66;;;11.80;25.10
65013;BME280;51715;39.432;-77.518;2023-03-22T07:34:34;100600.21;;;11.66;25.19
65013;BME280;51715;39.432;-77.518;2023-03-22T07:37:02;100607.65;;;11.58;24.37
65013;BME280;51715;39.432;-77.518;2023-03-22T07:39:31;100598.77;;;11.64;25.90
65013;BME280;51715;39.432;-77.518;2023-03-22T07:41:59;100601.16;;;11.34;25.20
65013;BME280;51715;39.432;-77.518;2023-03-22T07:44:28;100594.58;;;11.55;25.41
65013;BME280;51715;39.432;-77.518;2023-03-22T07:46:57;100592.01;;;11.63;24.84
65013;BME280;51715;39.432;-77.518;2023-03-22T07:49:25;100589.49;;;11.43;24.80
65013;BME280;51715;39.432;-77.518;2023-03-22T07:51:54;100587.43;;;11.43;24.70
65013;BME280;51715;39.432;-77.518;2023-03-22T07:54:23;100586.87;;;11.58;25.39
65013;BME280;51715;39.432;-77.518;2023-03-22T07:56:51;100592.11;;;11.61;24.97
65013;BME280;51715;39.432;-77.518;2023-03-22T07:59:19;100588.14;;;11.66;24.58
65013;BME280;51715;39.432;-77.518;2023-03-22T08:01:46;100589.37;;;11.37;25.50
65013;BME280;51715;39.432;-77.518;2023-03-22T08:04:15;100588.97;;;11.60;25.10
65013;BME280;51715;39.432;-77.518;2023-03-22T08:06:43;100593.49;;;11.22;25.37
65013;BME280;51715;39.432;-77.518;2023-03-22T08:09:11;100591.69;;;11.25;25.80
65013;BME280;51715;39.432;-77.518;2023-03-22T08:11:39;100592.17;;;11.68;26.18
65013;BME280;51715;39.432;-77.518;2023-03-22T08:14:08;100594.23;;;11.33;25.73
65013;BME280;51715;39.432;-77.518;2023-03-22T08:16:36;100588.89;;;11.33;25.63
65013;BME280;51715;39.432;-77.518;2023-03-22T08:19:04;100590.63;;;11.25;26.52
65013;BME280;51715;39.432;-77.518;2023-03-22T08:21:33;100587.02;;;11.18;25.97
65013;BME280;51715;39.432;-77.518;2023-03-22T08:24:01;100587.72;;;11.11;26.38
65013;BME280;51715;39.432;-77.518;2023-03-22T08:26:29;100592.62;;;11.16;25.77
65013;BME280;51715;39.432;-77.518;2023-03-22T08:28:57;100591.94;;;11.20;25.49
65013;BME280;51715;39.432;-77.518;2023-03-22T08:31:25;100598.38;;;11.20;25.53
65013;BME280;51715;39.432;-77.518;2023-03-22T08:33:53;100595.13;;;11.26;26.09
65013;BME280;51715;39.432;-77.518;2023-03-22T08:36:21;100592.43;;;11.17;26.03
65013;BME280;51715;39.432;-77.518;2023-03-22T08:38:50;100587.04;;;11.11;26.83
65013;BME280;51715;39.432;-77.518;2023-03-22T08:41:18;100579.34;;;10.95;27.12
65013;BME280;51715;39.432;-77.518;2023-03-22T08:43:47;100578.01;;;10.77;27.18
65013;BME280;51715;39.432;-77.518;2023-03-22T08:46:16;100582.25;;;10.83;26.80
65013;BME280;51715;39.432;-77.518;2023-03-22T08:48:44;100586.99;;;10.87;26.38
65013;BME280;51715;39.432;-77.518;2023-03-22T08:51:13;100585.33;;;10.96;25.69
65013;BME280;51715;39.432;-77.518;2023-03-22T08:53:41;100592.24;;;11.25;25.89
65013;BME280;51715;39.432;-77.518;2023-03-22T08:56:09;100597.85;;;11.41;26.24
65013;BME280;51715;39.432;-77.518;2023-03-22T08:58:38;100602.77;;;10.85;26.56
65013;BME280;51715;39.432;-77.518;2023-03-22T09:01:09;100597.03;;;10.62;27.12
65013;BME280;51715;39.432;-77.518;2023-03-22T09:03:39;100601.52;;;11.00;26.71
65013;BME280;51715;39.432;-77.518;2023-03-22T09:06:09;100598.28;;;10.81;26.70
65013;BME280;51715;39.432;-77.518;2023-03-22T09:08:38;100611.55;;;11.00;26.87
65013;BME280;51715;39.432;-77.518;2023-03-22T09:11:08;100612.85;;;10.81;27.01
65013;BME280;51715;39.432;-77.518;2023-03-22T09:13:37;100611.54;;;11.19;26.40
65013;BME280;51715;39.432;-77.518;2023-03-22T09:16:05;100616.53;;;11.00;26.63
65013;BME280;51715;39.432;-77.518;2023-03-22T09:18:34;100612.96;;;11.05;26.98
65013;BME280;51715;39.432;-77.518;2023-03-22T09:21:02;100617.94;;;11.11;26.74
65013;BME280;51715;39.432;-77.518;2023-03-22T09:23:30;100624.48;;;11.34;26.89
65013;BME280;51715;39.432;-77.518;2023-03-22T09:26:00;100628.16;;;11.14;26.72
65013;BME280;51715;39.432;-77.518;2023-03-22T09:28:29;100626.46;;;11.15;27.93
65013;BME280;51715;39.432;-77.518;2023-03-22T09:31:00;100623.86;;;11.13;28.63
65013;BME280;51715;39.432;-77.518;2023-03-22T09:33:29;100626.27;;;11.12;28.23
65013;BME280;51715;39.432;-77.518;2023-03-22T09:35:57;100621.40;;;10.57;27.59
65013;BME280;51715;39.432;-77.518;2023-03-22T09:38:26;100625.85;;;10.93;27.07
65013;BME280;51715;39.432;-77.518;2023-03-22T09:40:56;100618.08;;;10.25;28.54
65013;BME280;51715;39.432;-77.518;2023-03-22T09:43:28;100629.85;;;10.34;28.54
65013;BME280;51715;39.432;-77.518;2023-03-22T09:45:58;100626.31;;;10.33;28.48
65013;BME280;51715;39.432;-77.518;2023-03-22T09:48:29;100630.48;;;10.47;28.79
65013;BME280;51715;39.432;-77.518;2023-03-22T09:51:01;100631.77;;;10.34;28.24
65013;BME280;51715;39.432;-77.518;2023-03-22T09:53:31;100632.15;;;10.85;27.11
65013;BME280;51715;39.432;-77.518;2023-03-22T09:56:05;100634.51;;;10.69;27.39
65013;BME280;51715;39.432;-77.518;2023-03-22T09:58:39;100632.51;;;10.66;27.65
65013;BME280;51715;39.432;-77.518;2023-03-22T10:01:15;100642.75;;;10.78;28.14
65013;BME280;51715;39.432;-77.518;2023-03-22T10:04:02;100646.37;;;10.78;27.96
65013;BME280;51715;39.432;-77.518;2023-03-22T10:06:37;100643.48;;;10.84;28.33
65013;BME280;51715;39.432;-77.518;2023-03-22T10:09:09;100635.10;;;10.95;27.72
65013;BME280;51715;39.432;-77.518;2023-03-22T10:11:45;100658.04;;;9.98;29.98
65013;BME280;51715;39.432;-77.518;2023-03-22T10:14:25;100660.71;;;10.03;29.07
65013;BME280;51715;39.432;-77.518;2023-03-22T10:16:56;100665.04;;;10.65;28.06
65013;BME280;51715;39.432;-77.518;2023-03-22T10:19:30;100658.84;;;10.72;28.40
65013;BME280;51715;39.432;-77.518;2023-03-22T10:22:01;100657.64;;;10.53;28.64
65013;BME280;51715;39.432;-77.518;2023-03-22T10:24:34;100645.19;;;10.54;28.05
65013;BME280;51715;39.432;-77.518;2023-03-22T10:27:03;100628.11;;;10.52;28.34
65013;BME280;51715;39.432;-77.518;2023-03-22T10:29:41;100612.50;;;10.94;29.81
65013;BME280;51715;39.432;-77.518;2023-03-22T10:32:14;100613.17;;;10.73;29.05
65013;BME280;51715;39.432;-77.518;2023-03-22T10:34:43;100625.03;;;9.56;29.69
65013;BME280;51715;39.432;-77.518;2023-03-22T10:37:15;100617.12;;;9.84;28.38
65013;BME280;51715;39.432;-77.518;2023-03-22T10:39:46;100611.29;;;10.25;27.69
65013;BME280;51715;39.432;-77.518;2023-03-22T10:42:19;100603.98;;;10.08;28.54
65013;BME280;51715;39.432;-77.518;2023-03-22T10:44:52;100606.21;;;10.11;28.10
65013;BME280;51715;39.432;-77.518;2023-03-22T10:47:29;100599.97;;;10.33;28.05
65013;BME280;51715;39.432;-77.518;2023-03-22T10:50:02;100595.96;;;10.48;27.69
65013;BME280;51715;39.432;-77.518;2023-03-22T10:52:40;100596.84;;;10.67;28.27
65013;BME280;51715;39.432;-77.518;2023-03-22T10:55:12;100599.57;;;10.76;28.07
65013;BME280;51715;39.432;-77.518;2023-03-22T10:57:42;100605.23;;;10.47;28.51
65013;BME280;51715;39.432;-77.518;2023-03-22T11:00:16;100601.12;;;10.42;28.69
65013;BME280;51715;39.432;-77.518;2023-03-22T11:02:50;100602.11;;;10.60;27.82
65013;BME280;51715;39.432;-77.518;2023-03-22T11:05:22;100612.68;;;10.21;29.19
65013;BME280;51715;39.432;-77.518;2023-03-22T11:07:52;100604.86;;;10.38;28.79
65013;BME280;51715;39.432;-77.518;2023-03-22T11:10:23;100593.86;;;10.66;28.03
65013;BME280;51715;39.432;-77.518;2023-03-22T11:12:54;100597.69;;;10.34;28.17
65013;BME280;51715;39.432;-77.518;2023-03-22T11:15:27;100599.58;;;10.77;27.82
65013;BME280;51715;39.432;-77.518;2023-03-22T11:18:02;100593.86;;;10.48;27.10
65013;BME280;51715;39.432;-77.518;2023-03-22T11:20:32;100591.55;;;10.82;27.17
65013;BME280;51715;39.432;-77.518;2023-03-22T11:23:04;100584.52;;;10.76;25.94
65013;BME280;51715;39.432;-77.518;2023-03-22T11:25:35;100578.63;;;10.89;26.15
65013;BME280;51715;39.432;-77.518;2023-03-22T11:28:14;100576.87;;;11.04;26.19
65013;BME280;51715;39.432;-77.518;2023-03-22T11:30:58;100576.17;;;11.14;25.98
65013;BME280;51715;39.432;-77.518;2023-03-22T11:33:28;100582.97;;;11.42;26.89
65013;BME280;51715;39.432;-77.518;2023-03-22T11:35:58;100583.83;;;11.32;26.29
65013;BME280;51715;39.432;-77.518;2023-03-22T11:38:29;100580.45;;;11.54;25.62
65013;BME280;51715;39.432;-77.518;2023-03-22T11:40:59;100579.41;;;11.65;25.74
65013;BME280;51715;39.432;-77.518;2023-03-22T11:43:33;100573.18;;;11.33;24.80
65013;BME280;51715;39.432;-77.518;2023-03-22T11:46:04;100573.19;;;11.82;25.57
65013;BME280;51715;39.432;-77.518;2023-03-22T11:48:35;100574.49;;;11.62;26.61
65013;BME280;51715;39.432;-77.518;2023-03-22T11:51:11;100575.06;;;11.54;28.58
65013;BME280;51715;39.432;-77.518;2023-03-22T11:53:41;100572.75;;;11.54;28.07
65013;BME280;51715;39.432;-77.518;2023-03-22T11:56:16;100574.62;;;11.67;27.39
65013;BME280;51715;39.432;-77.518;2023-03-22T11:58:55;100569.95;;;11.84;27.73
65013;BME280;51715;39.432;-77.518;2023-03-22T12:01:31;100570.06;;;12.04;26.04
65013;BME280;51715;39.432;-77.518;2023-03-22T12:04:04;100573.19;;;11.55;29.31
65013;BME280;51715;39.432;-77.518;2023-03-22T12:06:37;100575.57;;;11.62;27.70
65013;BME280;51715;39.432;-77.518;2023-03-22T12:09:17;100574.82;;;11.69;27.28
65013;BME280;51715;39.432;-77.518;2023-03-22T12:11:51;100581.45;;;12.03;26.94
65013;BME280;51715;39.432;-77.518;2023-03-22T12:14:23;100589.81;;;12.01;26.08
65013;BME280;51715;39.432;-77.518;2023-03-22T12:16:56;100594.43;;;12.22;25.61
65013;BME280;51715;39.432;-77.518;2023-03-22T12:19:40;100598.74;;;12.61;25.73
65013;BME280;51715;39.432;-77.518;2023-03-22T12:22:14;100606.86;;;12.71;28.51
65013;BME280;51715;39.432;-77.518;2023-03-22T12:24:43;100620.64;;;12.17;28.50
65013;BME280;51715;39.432;-77.518;2023-03-22T12:27:16;100617.02;;;12.71;26.90
65013;BME280;51715;39.432;-77.518;2023-03-22T12:29:53;100618.45;;;12.90;25.21
65013;BME280;51715;39.432;-77.518;2023-03-22T12:32:27;100619.07;;;13.21;26.35
65013;BME280;51715;39.432;-77.518;2023-03-22T12:34:57;100618.35;;;13.10;24.95
65013;BME280;51715;39.432;-77.518;2023-03-22T12:37:29;100611.39;;;13.82;23.13
65013;BME280;51715;39.432;-77.518;2023-03-22T12:40:00;100614.43;;;14.28;22.66
65013;BME280;51715;39.432;-77.518;2023-03-22T12:42:35;100606.77;;;14.70;20.87
65013;BME280;51715;39.432;-77.518;2023-03-22T12:45:11;100607.64;;;14.34;20.52
65013;BME280;51715;39.432;-77.518;2023-03-22T12:47:42;100608.32;;;14.94;20.83
65013;BME280;51715;39.432;-77.518;2023-03-22T12:50:17;100609.92;;;14.44;20.64
65013;BME280;51715;39.432;-77.518;2023-03-22T12:52:48;100616.60;;;14.55;21.39